VOZ9290 YBLN-YPPH
Flight info
| Callsign | VOZ9290 |
|---|---|
| Flight time | 0h 30m |
| Altitude | 17000 |
| Route | BLN W20 PH |
| Aircraft | A320/M-SDE3FGHIRWY/LB1 |
Departure
| Time | 2026-05-06 09:54 |
|---|---|
| Airport | Busselton Margaret River Regional Airport (YBLN) |
Arrival
| Time | 2026-05-06 10:24 |
|---|---|
| Airport | Perth International Airport (YPPH) |
| Time | Latitude | Longitude | Altitude | Speed | Heading |
|---|---|---|---|---|---|
| 2026-05-06 09:33 | -33.68604 | 115.39967 | 54 ft | 0 kts | 341° |
| 2026-05-06 09:50 | -33.68595 | 115.39973 | 58 ft | 2 kts | 43° |
| 2026-05-06 09:50 | -33.68604 | 115.39994 | 55 ft | 4 kts | 151° |
| 2026-05-06 09:50 | -33.68644 | 115.40010 | 55 ft | 8 kts | 156° |
| 2026-05-06 09:50 | -33.68677 | 115.40076 | 55 ft | 11 kts | 114° |
| 2026-05-06 09:51 | -33.68714 | 115.40171 | 59 ft | 13 kts | 115° |
| 2026-05-06 09:51 | -33.68676 | 115.40242 | 56 ft | 13 kts | 30° |
| 2026-05-06 09:51 | -33.68586 | 115.40292 | 61 ft | 16 kts | 25° |
| 2026-05-06 09:51 | -33.68469 | 115.40361 | 59 ft | 21 kts | 27° |
| 2026-05-06 09:52 | -33.68331 | 115.40439 | 54 ft | 23 kts | 25° |
| 2026-05-06 09:52 | -33.68180 | 115.40525 | 59 ft | 25 kts | 26° |
| 2026-05-06 09:52 | -33.68025 | 115.40613 | 55 ft | 25 kts | 25° |
| 2026-05-06 09:52 | -33.67897 | 115.40685 | 56 ft | 16 kts | 25° |
| 2026-05-06 09:53 | -33.67784 | 115.40708 | 61 ft | 13 kts | 9° |
| 2026-05-06 09:53 | -33.67759 | 115.40764 | 58 ft | 11 kts | 176° |
| 2026-05-06 09:53 | -33.67836 | 115.40721 | 60 ft | 29 kts | 205° |
| 2026-05-06 09:53 | -33.68265 | 115.40477 | 54 ft | 103 kts | 206° |
| 2026-05-06 09:54 | -33.69089 | 115.40007 | 114 ft | 150 kts | 205° |
| 2026-05-06 09:54 | -33.70030 | 115.39460 | 730 ft | 150 kts | 199° |
| 2026-05-06 09:54 | -33.70964 | 115.38916 | 1378 ft | 149 kts | 198° |
| 2026-05-06 09:54 | -33.71884 | 115.38297 | 1907 ft | 162 kts | 219° |
| 2026-05-06 09:55 | -33.72361 | 115.36974 | 2194 ft | 189 kts | 270° |
| 2026-05-06 09:55 | -33.71918 | 115.35468 | 2494 ft | 206 kts | 316° |
| 2026-05-06 09:55 | -33.70631 | 115.34685 | 2835 ft | 217 kts | 2° |
| 2026-05-06 09:55 | -33.69088 | 115.34939 | 3309 ft | 236 kts | 18° |
| 2026-05-06 09:56 | -33.67442 | 115.35525 | 3948 ft | 254 kts | 21° |
| 2026-05-06 09:56 | -33.65741 | 115.36212 | 4884 ft | 260 kts | 21° |
| 2026-05-06 09:56 | -33.64005 | 115.36917 | 5814 ft | 267 kts | 20° |
| 2026-05-06 09:56 | -33.62213 | 115.37627 | 6696 ft | 276 kts | 20° |
| 2026-05-06 09:57 | -33.60362 | 115.38342 | 7551 ft | 282 kts | 20° |
| 2026-05-06 09:57 | -33.58466 | 115.39059 | 8412 ft | 289 kts | 19° |
| 2026-05-06 09:57 | -33.56524 | 115.39781 | 9272 ft | 295 kts | 20° |
| 2026-05-06 09:57 | -33.54540 | 115.40511 | 10127 ft | 302 kts | 19° |
| 2026-05-06 09:58 | -33.52496 | 115.41261 | 10756 ft | 315 kts | 19° |
| 2026-05-06 09:58 | -33.50321 | 115.42059 | 11043 ft | 339 kts | 18° |
| 2026-05-06 09:58 | -33.47998 | 115.42910 | 11437 ft | 356 kts | 18° |
| 2026-05-06 09:58 | -33.45611 | 115.43778 | 12144 ft | 361 kts | 18° |
| 2026-05-06 09:59 | -33.43190 | 115.44655 | 12900 ft | 365 kts | 18° |
| 2026-05-06 09:59 | -33.40743 | 115.45547 | 13645 ft | 370 kts | 18° |
| 2026-05-06 09:59 | -33.38270 | 115.46453 | 14387 ft | 374 kts | 19° |
| 2026-05-06 09:59 | -33.35774 | 115.47368 | 15048 ft | 377 kts | 18° |
| 2026-05-06 10:00 | -33.33247 | 115.48290 | 15701 ft | 381 kts | 18° |
| 2026-05-06 10:00 | -33.30703 | 115.49216 | 16342 ft | 385 kts | 18° |
| 2026-05-06 10:00 | -33.28164 | 115.50136 | 16998 ft | 387 kts | 18° |
| 2026-05-06 10:00 | -33.25568 | 115.51078 | 17339 ft | 389 kts | 18° |
| 2026-05-06 10:01 | -33.22957 | 115.52029 | 17429 ft | 400 kts | 18° |
| 2026-05-06 10:01 | -33.20252 | 115.53016 | 17433 ft | 411 kts | 18° |
| 2026-05-06 10:01 | -33.17506 | 115.54017 | 17430 ft | 413 kts | 18° |
| 2026-05-06 10:01 | -33.14758 | 115.55017 | 17431 ft | 414 kts | 18° |
| 2026-05-06 10:02 | -33.12000 | 115.56017 | 17439 ft | 414 kts | 18° |
| 2026-05-06 10:02 | -33.09243 | 115.57015 | 17427 ft | 414 kts | 18° |
| 2026-05-06 10:02 | -33.06491 | 115.58014 | 17430 ft | 413 kts | 18° |
| 2026-05-06 10:02 | -33.03728 | 115.59014 | 17431 ft | 414 kts | 18° |
| 2026-05-06 10:03 | -33.00973 | 115.60011 | 17430 ft | 414 kts | 18° |
| 2026-05-06 10:03 | -32.98219 | 115.61007 | 17421 ft | 414 kts | 18° |
| 2026-05-06 10:03 | -32.95466 | 115.62003 | 17424 ft | 414 kts | 18° |
| 2026-05-06 10:03 | -32.92712 | 115.62996 | 17427 ft | 414 kts | 18° |
| 2026-05-06 10:04 | -32.89953 | 115.63991 | 17425 ft | 414 kts | 18° |
| 2026-05-06 10:04 | -32.87204 | 115.64983 | 17440 ft | 414 kts | 18° |
| 2026-05-06 10:04 | -32.84447 | 115.65979 | 17443 ft | 413 kts | 18° |
| 2026-05-06 10:04 | -32.81694 | 115.66974 | 17444 ft | 413 kts | 18° |
| 2026-05-06 10:05 | -32.78950 | 115.67960 | 17437 ft | 413 kts | 18° |
| 2026-05-06 10:05 | -32.76235 | 115.68935 | 17437 ft | 412 kts | 18° |
| 2026-05-06 10:05 | -32.73491 | 115.69922 | 17434 ft | 412 kts | 18° |
| 2026-05-06 10:05 | -32.70743 | 115.70910 | 17440 ft | 412 kts | 18° |
| 2026-05-06 10:06 | -32.68042 | 115.71877 | 17369 ft | 395 kts | 18° |
| 2026-05-06 10:06 | -32.65455 | 115.72801 | 17053 ft | 381 kts | 18° |
| 2026-05-06 10:06 | -32.62928 | 115.73706 | 16712 ft | 378 kts | 18° |
| 2026-05-06 10:06 | -32.60418 | 115.74607 | 16337 ft | 375 kts | 18° |
| 2026-05-06 10:07 | -32.57926 | 115.75501 | 15966 ft | 373 kts | 18° |
| 2026-05-06 10:07 | -32.55470 | 115.76458 | 15595 ft | 370 kts | 24° |
| 2026-05-06 10:07 | -32.53142 | 115.77757 | 15234 ft | 368 kts | 28° |
| 2026-05-06 10:07 | -32.50857 | 115.79106 | 14772 ft | 365 kts | 28° |
| 2026-05-06 10:08 | -32.48585 | 115.80451 | 14305 ft | 363 kts | 28° |
| 2026-05-06 10:08 | -32.46362 | 115.81766 | 13791 ft | 360 kts | 28° |
| 2026-05-06 10:08 | -32.44136 | 115.83086 | 13449 ft | 355 kts | 28° |
| 2026-05-06 10:08 | -32.41922 | 115.84403 | 13399 ft | 356 kts | 28° |
| 2026-05-06 10:09 | -32.39698 | 115.85725 | 13413 ft | 357 kts | 28° |
| 2026-05-06 10:09 | -32.37478 | 115.87045 | 13413 ft | 357 kts | 28° |
| 2026-05-06 10:09 | -32.35250 | 115.88370 | 13413 ft | 357 kts | 28° |
| 2026-05-06 10:09 | -32.33029 | 115.89691 | 13409 ft | 357 kts | 28° |
| 2026-05-06 10:10 | -32.30809 | 115.91012 | 13409 ft | 357 kts | 28° |
| 2026-05-06 10:10 | -32.28585 | 115.92337 | 13411 ft | 357 kts | 28° |
| 2026-05-06 10:10 | -32.26375 | 115.93654 | 13408 ft | 350 kts | 28° |
| 2026-05-06 10:10 | -32.24255 | 115.94915 | 13406 ft | 333 kts | 28° |
| 2026-05-06 10:11 | -32.22202 | 115.96135 | 13264 ft | 329 kts | 28° |
| 2026-05-06 10:11 | -32.20177 | 115.97338 | 12746 ft | 324 kts | 28° |
| 2026-05-06 10:11 | -32.18172 | 115.98533 | 12248 ft | 322 kts | 28° |
| 2026-05-06 10:11 | -32.16175 | 115.99724 | 11756 ft | 319 kts | 28° |
| 2026-05-06 10:12 | -32.14201 | 116.00898 | 11238 ft | 316 kts | 28° |
| 2026-05-06 10:12 | -32.12270 | 116.02052 | 10718 ft | 314 kts | 28° |
| 2026-05-06 10:12 | -32.10307 | 116.03222 | 10179 ft | 311 kts | 28° |
| 2026-05-06 10:12 | -32.08384 | 116.04370 | 9592 ft | 308 kts | 28° |
| 2026-05-06 10:13 | -32.06504 | 116.05485 | 9017 ft | 304 kts | 28° |
| 2026-05-06 10:13 | -32.04618 | 116.06597 | 8457 ft | 302 kts | 28° |
| 2026-05-06 10:13 | -32.02753 | 116.07693 | 7920 ft | 298 kts | 28° |
| 2026-05-06 10:13 | -32.00894 | 116.08776 | 7383 ft | 296 kts | 27° |
| 2026-05-06 10:14 | -31.99068 | 116.09842 | 6851 ft | 291 kts | 29° |
| 2026-05-06 10:14 | -31.97259 | 116.10886 | 6285 ft | 287 kts | 29° |
| 2026-05-06 10:14 | -31.95483 | 116.11913 | 5704 ft | 282 kts | 28° |
| 2026-05-06 10:14 | -31.93736 | 116.12917 | 5203 ft | 276 kts | 28° |
| 2026-05-06 10:15 | -31.92024 | 116.13901 | 4660 ft | 271 kts | 28° |
| 2026-05-06 10:15 | -31.90330 | 116.14858 | 4174 ft | 270 kts | 28° |
| 2026-05-06 10:15 | -31.88641 | 116.15803 | 4008 ft | 268 kts | 29° |
| 2026-05-06 10:15 | -31.86952 | 116.16730 | 4008 ft | 268 kts | 28° |
| 2026-05-06 10:16 | -31.85261 | 116.17660 | 4008 ft | 268 kts | 28° |
| 2026-05-06 10:16 | -31.83567 | 116.18589 | 4006 ft | 269 kts | 28° |
| 2026-05-06 10:16 | -31.81890 | 116.19513 | 3872 ft | 269 kts | 28° |
| 2026-05-06 10:16 | -31.80179 | 116.20377 | 3637 ft | 269 kts | 19° |
| 2026-05-06 10:17 | -31.78281 | 116.20429 | 3460 ft | 277 kts | 349° |
| 2026-05-06 10:17 | -31.76569 | 116.19441 | 3289 ft | 283 kts | 322° |
| 2026-05-06 10:17 | -31.75379 | 116.17602 | 3115 ft | 287 kts | 295° |
| 2026-05-06 10:17 | -31.74662 | 116.15396 | 3031 ft | 289 kts | 289° |
| 2026-05-06 10:18 | -31.74026 | 116.13178 | 2956 ft | 279 kts | 289° |
| 2026-05-06 10:18 | -31.73448 | 116.11097 | 2910 ft | 256 kts | 288° |
| 2026-05-06 10:18 | -31.72918 | 116.09197 | 2855 ft | 235 kts | 287° |
| 2026-05-06 10:18 | -31.72791 | 116.07375 | 2805 ft | 221 kts | 253° |
| 2026-05-06 10:19 | -31.73491 | 116.05830 | 2765 ft | 214 kts | 224° |
| 2026-05-06 10:19 | -31.74525 | 116.04566 | 2759 ft | 215 kts | 219° |
| 2026-05-06 10:19 | -31.75601 | 116.03343 | 2766 ft | 215 kts | 219° |
| 2026-05-06 10:19 | -31.76691 | 116.02137 | 2752 ft | 216 kts | 218° |
| 2026-05-06 10:20 | -31.77917 | 116.01204 | 2735 ft | 207 kts | 193° |
| 2026-05-06 10:20 | -31.79268 | 116.00788 | 2676 ft | 196 kts | 188° |
| 2026-05-06 10:20 | -31.80564 | 116.00417 | 2500 ft | 192 kts | 188° |
| 2026-05-06 10:20 | -31.81849 | 116.00046 | 2330 ft | 184 kts | 187° |
| 2026-05-06 10:21 | -31.83051 | 115.99695 | 2063 ft | 172 kts | 187° |
| 2026-05-06 10:21 | -31.84180 | 115.99368 | 1824 ft | 162 kts | 188° |
| 2026-05-06 10:21 | -31.85245 | 115.99059 | 1579 ft | 154 kts | 187° |
| 2026-05-06 10:21 | -31.86267 | 115.98767 | 1316 ft | 145 kts | 188° |
| 2026-05-06 10:22 | -31.87219 | 115.98490 | 1107 ft | 137 kts | 187° |
| 2026-05-06 10:22 | -31.88137 | 115.98222 | 897 ft | 134 kts | 187° |
| 2026-05-06 10:22 | -31.89031 | 115.97959 | 726 ft | 131 kts | 189° |
| 2026-05-06 10:22 | -31.89920 | 115.97697 | 575 ft | 132 kts | 190° |
| 2026-05-06 10:23 | -31.90807 | 115.97447 | 429 ft | 131 kts | 189° |
| 2026-05-06 10:23 | -31.91682 | 115.97180 | 275 ft | 127 kts | 192° |
| 2026-05-06 10:23 | -31.92253 | 115.97019 | 197 ft | 128 kts | 190° |
| 2026-05-06 10:23 | -31.93389 | 115.96695 | 63 ft | 109 kts | 193° |
| 2026-05-06 10:24 | -31.93955 | 115.96528 | 68 ft | 60 kts | 193° |
| 2026-05-06 10:24 | -31.94152 | 115.96470 | 67 ft | 30 kts | 194° |
| 2026-05-06 10:24 | -31.94295 | 115.96430 | 62 ft | 21 kts | 193° |
| 2026-05-06 10:24 | -31.94422 | 115.96420 | 69 ft | 18 kts | 155° |
| 2026-05-06 10:25 | -31.94478 | 115.96516 | 67 ft | 9 kts | 105° |
| 2026-05-06 10:25 | -31.94496 | 115.96606 | 62 ft | 13 kts | 103° |
| 2026-05-06 10:25 | -31.94506 | 115.96684 | 68 ft | 15 kts | 77° |
| 2026-05-06 10:25 | -31.94409 | 115.96743 | 68 ft | 18 kts | 17° |